createdAt,value
2018-10-01T00:00:18.207Z,972.77
2018-10-01T00:01:39.101Z,972.81
2018-10-01T00:02:18.047Z,972.82
2018-10-01T00:03:17.980Z,972.81
2018-10-01T00:04:17.888Z,972.79
2018-10-01T00:05:17.800Z,972.77
2018-10-01T00:06:17.731Z,972.73
2018-10-01T00:07:38.621Z,972.75
2018-10-01T00:08:17.578Z,972.76
2018-10-01T00:09:17.483Z,972.74
2018-10-01T00:10:17.414Z,972.75
2018-10-01T00:11:17.323Z,972.76
2018-10-01T00:12:17.257Z,972.74
2018-10-01T00:13:38.141Z,972.72
2018-10-01T00:14:17.088Z,972.73
2018-10-01T00:15:17.010Z,972.73
2018-10-01T00:16:16.935Z,972.74
2018-10-01T00:17:16.849Z,972.73
2018-10-01T00:18:16.772Z,972.74
2018-10-01T00:19:37.663Z,972.68
2018-10-01T00:20:16.617Z,972.68
2018-10-01T00:21:16.528Z,972.67
2018-10-01T00:22:16.449Z,972.64
2018-10-01T00:23:16.364Z,972.64
2018-10-01T00:24:16.290Z,972.61
2018-10-01T00:25:37.192Z,972.63
2018-10-01T00:26:16.132Z,972.63
2018-10-01T00:27:16.051Z,972.62
2018-10-01T00:28:15.976Z,972.64
2018-10-01T00:29:15.888Z,972.63
2018-10-01T00:30:15.814Z,972.67
2018-10-01T00:31:36.710Z,972.65
2018-10-01T00:32:15.660Z,972.66
2018-10-01T00:33:15.568Z,972.69
2018-10-01T00:34:15.500Z,972.67
2018-10-01T00:35:15.410Z,972.72
2018-10-01T00:36:15.338Z,972.70
2018-10-01T00:37:36.227Z,972.69
2018-10-01T00:38:15.234Z,972.65
2018-10-01T00:39:15.096Z,972.65
2018-10-01T00:40:15.065Z,972.61
2018-10-01T00:41:14.930Z,972.61
2018-10-01T00:42:14.858Z,972.62
2018-10-01T00:43:35.749Z,972.65
2018-10-01T00:44:14.699Z,972.65
2018-10-01T00:45:14.608Z,972.64
2018-10-01T00:46:14.540Z,972.64
2018-10-01T00:47:14.450Z,972.61
2018-10-01T00:48:14.375Z,972.64
2018-10-01T00:49:35.272Z,972.64
2018-10-01T00:50:14.227Z,972.63
2018-10-01T00:51:14.135Z,972.61
2018-10-01T00:52:14.057Z,972.61
2018-10-01T00:53:13.975Z,972.64
2018-10-01T00:54:13.898Z,972.57
2018-10-01T00:55:34.791Z,972.57
2018-10-01T00:56:13.736Z,972.56
2018-10-01T00:57:13.654Z,972.61
2018-10-01T00:58:13.579Z,972.60
2018-10-01T00:59:13.491Z,972.61
2018-10-01T01:00:13.422Z,972.56
2018-10-01T01:01:34.317Z,972.53
2018-10-01T01:02:13.256Z,972.47
2018-10-01T01:03:13.170Z,972.45
2018-10-01T01:04:13.105Z,972.43
2018-10-01T01:05:13.012Z,972.45
2018-10-01T01:06:12.944Z,972.46
2018-10-01T01:07:33.827Z,972.44
2018-10-01T01:08:12.779Z,972.41
2018-10-01T01:09:12.690Z,972.41
2018-10-01T01:10:13.619Z,972.39
2018-10-01T01:11:12.533Z,972.44
2018-10-01T01:12:12.458Z,972.42
2018-10-01T01:13:33.353Z,972.37
2018-10-01T01:14:12.300Z,972.31
2018-10-01T01:15:12.210Z,972.29
2018-10-01T01:16:12.141Z,972.30
2018-10-01T01:17:12.052Z,972.28
2018-10-01T01:18:11.980Z,972.29
2018-10-01T01:19:32.880Z,972.26
2018-10-01T01:20:11.817Z,972.29
2018-10-01T01:21:11.733Z,972.26
2018-10-01T01:22:11.657Z,972.26
2018-10-01T01:23:11.569Z,972.35
2018-10-01T01:24:11.503Z,972.34
2018-10-01T01:25:32.391Z,972.40
2018-10-01T01:26:11.341Z,972.40
2018-10-01T01:27:11.249Z,972.37
2018-10-01T01:28:11.175Z,972.37
2018-10-01T01:29:11.094Z,972.42
2018-10-01T01:30:11.028Z,972.41
2018-10-01T01:31:31.908Z,972.43
2018-10-01T01:32:10.857Z,972.45
2018-10-01T01:33:10.772Z,972.44
2018-10-01T01:34:10.697Z,972.42
2018-10-01T01:35:10.607Z,972.41
2018-10-01T01:36:10.547Z,972.39
2018-10-01T01:37:31.428Z,972.41
2018-10-01T01:38:10.374Z,972.36
2018-10-01T01:39:10.290Z,972.36
2018-10-01T01:40:10.217Z,972.33
2018-10-01T01:41:10.144Z,972.33
2018-10-01T01:42:10.058Z,972.35
2018-10-01T01:43:30.952Z,972.27
2018-10-01T01:44:09.893Z,972.30
2018-10-01T01:45:09.811Z,972.28
2018-10-01T01:46:09.741Z,972.27
2018-10-01T01:47:09.653Z,972.20
2018-10-01T01:48:09.574Z,972.23
2018-10-01T01:49:31.035Z,972.17
2018-10-01T01:50:09.419Z,972.12
2018-10-01T01:51:09.348Z,972.13
2018-10-01T01:52:09.261Z,972.08
2018-10-01T01:53:09.171Z,972.06
2018-10-01T01:54:09.096Z,972.06
2018-10-01T01:55:29.987Z,972.04
2018-10-01T01:56:08.938Z,972.03
2018-10-01T01:57:08.846Z,972.04
2018-10-01T01:58:08.780Z,972.01
2018-10-01T01:59:08.688Z,972.03
2018-10-01T02:00:08.625Z,972.02
2018-10-01T02:01:29.510Z,972.01
2018-10-01T02:02:08.465Z,972.05
2018-10-01T02:03:08.365Z,972.04
2018-10-01T02:04:08.302Z,972.05
2018-10-01T02:05:08.207Z,972.07
2018-10-01T02:06:08.140Z,972.03
2018-10-01T02:07:29.030Z,972.03
2018-10-01T02:08:07.977Z,972.08
2018-10-01T02:09:07.894Z,972.06
2018-10-01T02:10:07.812Z,972.01
2018-10-01T02:11:07.727Z,972.00
2018-10-01T02:12:07.655Z,972.03
2018-10-01T02:13:28.552Z,972.00
2018-10-01T02:14:07.494Z,972.00
2018-10-01T02:15:07.410Z,971.97
2018-10-01T02:16:07.338Z,971.95
2018-10-01T02:17:07.252Z,971.97
2018-10-01T02:18:07.178Z,972.03
2018-10-01T02:19:28.065Z,972.03
2018-10-01T02:20:07.017Z,971.97
2018-10-01T02:21:06.930Z,971.96
2018-10-01T02:22:06.857Z,971.93
2018-10-01T02:23:06.772Z,971.93
2018-10-01T02:24:06.699Z,971.93
2018-10-01T02:25:27.594Z,971.95
2018-10-01T02:26:06.537Z,971.96
2018-10-01T02:27:06.455Z,971.97
2018-10-01T02:28:06.383Z,971.99
2018-10-01T02:29:06.288Z,971.98
2018-10-01T02:30:06.222Z,971.97
2018-10-01T02:31:27.107Z,972.02
2018-10-01T02:32:06.057Z,972.02
2018-10-01T02:33:05.979Z,972.00
2018-10-01T02:34:05.895Z,972.05
2018-10-01T02:35:05.813Z,972.04
2018-10-01T02:36:05.735Z,972.07
2018-10-01T02:37:26.631Z,972.05
2018-10-01T02:38:05.577Z,972.04
2018-10-01T02:39:05.490Z,972.07
2018-10-01T02:40:05.419Z,972.06
2018-10-01T02:41:05.332Z,972.08
2018-10-01T02:42:05.261Z,972.07
2018-10-01T02:43:26.161Z,972.01
2018-10-01T02:44:05.104Z,972.02
2018-10-01T02:45:05.014Z,972.03
2018-10-01T02:46:04.941Z,972.03
2018-10-01T02:47:04.850Z,972.00
2018-10-01T02:48:04.783Z,971.98
2018-10-01T02:49:25.673Z,971.97
2018-10-01T02:50:04.617Z,971.92
2018-10-01T02:51:04.529Z,971.96
2018-10-01T02:52:04.457Z,971.95
2018-10-01T02:53:04.373Z,971.99
2018-10-01T02:54:04.296Z,971.97
2018-10-01T02:55:25.208Z,971.94
2018-10-01T02:56:04.145Z,971.94
2018-10-01T02:57:04.053Z,971.99
2018-10-01T02:58:03.983Z,971.96
2018-10-01T02:59:03.889Z,971.94
2018-10-01T03:00:03.822Z,971.98
2018-10-01T03:01:24.712Z,971.98
2018-10-01T03:02:03.658Z,972.00
2018-10-01T03:03:03.573Z,971.96
2018-10-01T03:04:03.501Z,971.93
2018-10-01T03:05:03.414Z,971.90
2018-10-01T03:06:03.340Z,971.89
2018-10-01T03:07:24.232Z,971.89
2018-10-01T03:08:03.181Z,971.89
2018-10-01T03:09:03.096Z,971.89
2018-10-01T03:10:03.025Z,971.91
2018-10-01T03:11:02.935Z,971.86
2018-10-01T03:12:02.868Z,971.87
2018-10-01T03:13:23.753Z,971.85
2018-10-01T03:14:02.706Z,971.80
2018-10-01T03:15:02.615Z,971.80
2018-10-01T03:16:02.544Z,971.83
2018-10-01T03:17:02.456Z,971.83
2018-10-01T03:18:02.396Z,971.83
2018-10-01T03:19:23.279Z,971.83
2018-10-01T03:20:02.225Z,971.86
2018-10-01T03:21:02.168Z,971.84
2018-10-01T03:22:02.066Z,971.85
2018-10-01T03:23:01.980Z,971.83
2018-10-01T03:24:01.908Z,971.82
2018-10-01T03:25:22.799Z,971.86
2018-10-01T03:26:01.745Z,971.82
2018-10-01T03:27:01.658Z,971.77
2018-10-01T03:28:01.592Z,971.72
2018-10-01T03:29:01.506Z,971.76
2018-10-01T03:30:01.426Z,971.76
2018-10-01T03:31:22.323Z,971.76
2018-10-01T03:32:01.269Z,971.72
2018-10-01T03:33:01.187Z,971.74
2018-10-01T03:34:01.101Z,971.73
2018-10-01T03:35:01.037Z,971.76
2018-10-01T03:36:00.954Z,971.75
2018-10-01T03:37:21.845Z,971.73
2018-10-01T03:38:00.793Z,971.71
2018-10-01T03:39:00.710Z,971.69
2018-10-01T03:40:00.685Z,971.69
2018-10-01T03:41:00.556Z,971.70
2018-10-01T03:42:00.471Z,971.67
2018-10-01T03:43:21.367Z,971.68
2018-10-01T03:44:00.318Z,971.72
2018-10-01T03:45:00.233Z,971.73
2018-10-01T03:46:00.155Z,971.75
2018-10-01T03:47:00.065Z,971.73
2018-10-01T03:48:00.001Z,971.71
2018-10-01T03:49:20.890Z,971.74
2018-10-01T03:49:59.840Z,971.75
2018-10-01T03:50:59.750Z,971.75
2018-10-01T03:51:59.684Z,971.73
2018-10-01T03:52:59.595Z,971.71
2018-10-01T03:53:59.521Z,971.70
2018-10-01T03:55:20.411Z,971.69
2018-10-01T03:55:59.373Z,971.70
2018-10-01T03:56:59.277Z,971.72
2018-10-01T03:57:59.199Z,971.71
2018-10-01T03:58:59.115Z,971.73
2018-10-01T03:59:59.048Z,971.70
2018-10-01T04:01:19.936Z,971.70
2018-10-01T04:01:58.883Z,971.74
2018-10-01T04:02:58.874Z,971.76
2018-10-01T04:03:58.725Z,971.77
2018-10-01T04:04:58.641Z,971.79
2018-10-01T04:05:58.576Z,971.78
2018-10-01T04:07:19.462Z,971.74
2018-10-01T04:07:58.412Z,971.73
2018-10-01T04:08:58.404Z,971.72
2018-10-01T04:09:58.248Z,971.74
2018-10-01T04:10:58.170Z,971.72
2018-10-01T04:11:58.095Z,971.74
2018-10-01T04:13:18.985Z,971.77
2018-10-01T04:13:57.926Z,971.78
2018-10-01T04:14:57.848Z,971.76
2018-10-01T04:15:57.772Z,971.77
2018-10-01T04:16:57.685Z,971.78
2018-10-01T04:17:57.617Z,971.81
2018-10-01T04:19:18.503Z,971.84
2018-10-01T04:19:57.462Z,971.84
2018-10-01T04:20:57.366Z,971.87
2018-10-01T04:21:57.293Z,971.86
2018-10-01T04:22:57.209Z,971.83
2018-10-01T04:23:57.143Z,971.86
2018-10-01T04:25:18.030Z,971.85
2018-10-01T04:25:57.076Z,971.86
2018-10-01T04:26:56.889Z,971.86
2018-10-01T04:27:56.890Z,971.87
2018-10-01T04:28:56.732Z,971.84
2018-10-01T04:29:56.663Z,971.87
2018-10-01T04:31:17.553Z,971.87
2018-10-01T04:31:56.504Z,971.91
2018-10-01T04:32:56.411Z,971.94
2018-10-01T04:33:56.464Z,971.94
2018-10-01T04:34:56.255Z,971.97
2018-10-01T04:35:56.223Z,971.97
2018-10-01T04:37:17.075Z,972.02
2018-10-01T04:37:56.131Z,972.05
2018-10-01T04:38:55.932Z,972.06
2018-10-01T04:39:55.941Z,972.08
2018-10-01T04:40:55.778Z,972.08
2018-10-01T04:41:55.749Z,972.10
2018-10-01T04:43:16.599Z,972.13
2018-10-01T04:43:55.549Z,972.14
2018-10-01T04:44:55.465Z,972.13
2018-10-01T04:45:55.392Z,972.13
2018-10-01T04:46:55.321Z,972.16
2018-10-01T04:47:55.232Z,972.16
2018-10-01T04:49:16.138Z,972.13
2018-10-01T04:49:55.073Z,972.11
2018-10-01T04:50:54.983Z,972.07
2018-10-01T04:51:54.919Z,972.09
2018-10-01T04:52:54.834Z,972.05
2018-10-01T04:53:54.808Z,972.07
2018-10-01T04:55:15.649Z,972.09
2018-10-01T04:55:54.613Z,972.09
2018-10-01T04:56:54.513Z,972.13
2018-10-01T04:57:54.626Z,972.17
2018-10-01T04:58:54.347Z,972.20
2018-10-01T04:59:54.331Z,972.21
2018-10-01T05:01:15.181Z,972.27
2018-10-01T05:01:54.145Z,972.26
2018-10-01T05:02:54.032Z,972.28
2018-10-01T05:03:54.054Z,972.29
2018-10-01T05:04:53.875Z,972.31
2018-10-01T05:05:53.863Z,972.33
2018-10-01T05:07:14.696Z,972.34
2018-10-01T05:07:53.670Z,972.36
2018-10-01T05:08:53.558Z,972.36
2018-10-01T05:09:53.583Z,972.40
2018-10-01T05:10:53.400Z,972.39
2018-10-01T05:11:53.388Z,972.42
2018-10-01T05:13:14.217Z,972.38
2018-10-01T05:13:53.200Z,972.37
2018-10-01T05:14:53.141Z,972.36
2018-10-01T05:15:53.008Z,972.37
2018-10-01T05:16:52.921Z,972.36
2018-10-01T05:17:52.847Z,972.32
2018-10-01T05:19:13.740Z,972.33
2018-10-01T05:19:52.689Z,972.34
2018-10-01T05:20:52.609Z,972.34
2018-10-01T05:21:52.539Z,972.35
2018-10-01T05:22:52.446Z,972.32
2018-10-01T05:23:52.371Z,972.31
2018-10-01T05:25:13.267Z,972.33
2018-10-01T05:25:52.212Z,972.35
2018-10-01T05:26:52.126Z,972.34
2018-10-01T05:27:52.070Z,972.35
2018-10-01T05:28:51.968Z,972.36
2018-10-01T05:29:51.897Z,972.36
2018-10-01T05:31:12.791Z,972.39
2018-10-01T05:31:51.741Z,972.44
2018-10-01T05:32:51.655Z,972.45
2018-10-01T05:33:51.583Z,972.46
2018-10-01T05:34:51.490Z,972.46
2018-10-01T05:35:51.420Z,972.49
2018-10-01T05:37:12.313Z,972.49
2018-10-01T05:37:51.321Z,972.54
2018-10-01T05:38:51.179Z,972.53
2018-10-01T05:39:51.109Z,972.55
2018-10-01T05:40:51.020Z,972.53
2018-10-01T05:41:50.943Z,972.54
2018-10-01T05:43:11.839Z,972.55
2018-10-01T05:43:50.796Z,972.53
2018-10-01T05:44:50.703Z,972.60
2018-10-01T05:45:50.628Z,972.58
2018-10-01T05:46:50.539Z,972.61
2018-10-01T05:47:50.468Z,972.64
2018-10-01T05:49:11.403Z,972.65
2018-10-01T05:49:50.307Z,972.67
2018-10-01T05:50:50.224Z,972.62
2018-10-01T05:51:50.151Z,972.65
2018-10-01T05:52:50.065Z,972.66
2018-10-01T05:53:49.990Z,972.66
2018-10-01T05:55:10.890Z,972.71
2018-10-01T05:55:49.857Z,972.73
2018-10-01T05:56:49.745Z,972.72
2018-10-01T05:57:49.694Z,972.71
2018-10-01T05:58:49.589Z,972.70
2018-10-01T05:59:49.515Z,972.75
2018-10-01T06:01:10.410Z,972.74
2018-10-01T06:01:49.353Z,972.70
2018-10-01T06:02:49.272Z,972.73
2018-10-01T06:03:49.206Z,972.73
2018-10-01T06:04:49.174Z,972.68
2018-10-01T06:05:49.123Z,972.72
2018-10-01T06:07:09.935Z,972.73
2018-10-01T06:07:48.933Z,972.71
2018-10-01T06:08:48.794Z,972.72
2018-10-01T06:09:48.745Z,972.74
2018-10-01T06:10:48.636Z,972.77
2018-10-01T06:11:48.670Z,972.80
2018-10-01T06:13:09.459Z,972.80
2018-10-01T06:13:48.462Z,972.84
2018-10-01T06:14:48.318Z,972.83
2018-10-01T06:15:48.276Z,972.87
2018-10-01T06:16:48.166Z,972.85
2018-10-01T06:17:48.184Z,972.85
2018-10-01T06:19:08.983Z,972.89
2018-10-01T06:19:47.995Z,972.90
2018-10-01T06:20:47.849Z,972.93
2018-10-01T06:21:47.803Z,972.91
2018-10-01T06:22:47.685Z,972.93
2018-10-01T06:23:47.718Z,972.95
2018-10-01T06:25:08.515Z,973.00
2018-10-01T06:25:47.517Z,973.01
2018-10-01T06:26:47.367Z,973.00
2018-10-01T06:27:47.327Z,973.00
2018-10-01T06:28:47.209Z,973.04
2018-10-01T06:29:47.241Z,973.11
2018-10-01T06:31:08.033Z,973.13
2018-10-01T06:31:47.047Z,973.11
2018-10-01T06:32:46.897Z,973.14
2018-10-01T06:33:46.857Z,973.14
2018-10-01T06:34:46.733Z,973.19
2018-10-01T06:35:46.663Z,973.21
2018-10-01T06:37:07.563Z,973.20
2018-10-01T06:37:46.578Z,973.17
2018-10-01T06:38:46.418Z,973.21
2018-10-01T06:39:46.388Z,973.17
2018-10-01T06:40:46.261Z,973.20
2018-10-01T06:41:46.350Z,973.20
2018-10-01T06:43:07.082Z,973.26
2018-10-01T06:43:46.110Z,973.26
2018-10-01T06:44:45.942Z,973.31
2018-10-01T06:45:45.919Z,973.32
2018-10-01T06:46:45.786Z,973.37
2018-10-01T06:47:45.724Z,973.38
2018-10-01T06:49:06.608Z,973.45
2018-10-01T06:49:45.639Z,973.45
2018-10-01T06:50:45.533Z,973.45
2018-10-01T06:51:45.452Z,973.53
2018-10-01T06:52:45.310Z,973.50
2018-10-01T06:53:45.255Z,973.54
2018-10-01T06:55:06.136Z,973.54
2018-10-01T06:55:45.171Z,973.59
2018-10-01T06:56:44.992Z,973.55
2018-10-01T06:57:44.979Z,973.55
2018-10-01T06:58:44.840Z,973.57
2018-10-01T06:59:44.783Z,973.58
2018-10-01T07:01:05.731Z,973.55
2018-10-01T07:01:44.700Z,973.58
2018-10-01T07:02:44.519Z,973.57
2018-10-01T07:03:44.506Z,973.62
2018-10-01T07:04:44.358Z,973.63
2018-10-01T07:05:44.473Z,973.63
2018-10-01T07:07:05.181Z,973.67
2018-10-01T07:07:44.227Z,973.72
2018-10-01T07:08:44.056Z,973.73
2018-10-01T07:09:44.036Z,973.73
2018-10-01T07:10:43.891Z,973.76
2018-10-01T07:11:43.876Z,973.76
2018-10-01T07:13:04.711Z,973.73
2018-10-01T07:13:43.756Z,973.73
2018-10-01T07:14:43.576Z,973.76
2018-10-01T07:15:43.564Z,973.74
2018-10-01T07:16:43.413Z,973.77
2018-10-01T07:17:43.381Z,973.78
2018-10-01T07:19:04.245Z,973.79
2018-10-01T07:19:43.286Z,973.79
2018-10-01T07:20:43.097Z,973.80
2018-10-01T07:21:43.096Z,973.78
2018-10-01T07:22:43.047Z,973.78
2018-10-01T07:23:42.908Z,973.85
2018-10-01T07:25:03.769Z,973.84
2018-10-01T07:25:42.813Z,973.86
2018-10-01T07:26:42.628Z,973.89
2018-10-01T07:27:42.621Z,973.92
2018-10-01T07:28:42.469Z,973.93
2018-10-01T07:29:42.391Z,973.93
2018-10-01T07:31:03.294Z,973.96
2018-10-01T07:31:42.342Z,973.99
2018-10-01T07:32:42.155Z,973.99
2018-10-01T07:33:42.150Z,973.98
2018-10-01T07:34:41.995Z,974.01
2018-10-01T07:35:41.965Z,974.00
2018-10-01T07:37:02.821Z,974.01
2018-10-01T07:37:41.871Z,974.02
2018-10-01T07:38:41.681Z,973.98
2018-10-01T07:39:41.682Z,974.02
2018-10-01T07:40:41.528Z,974.03
2018-10-01T07:41:41.489Z,974.04
2018-10-01T07:43:02.350Z,974.07
2018-10-01T07:43:41.403Z,974.08
2018-10-01T07:44:41.212Z,974.11
2018-10-01T07:45:41.137Z,974.14
2018-10-01T07:46:41.055Z,974.12
2018-10-01T07:47:41.021Z,974.17
2018-10-01T07:49:01.887Z,974.17
2018-10-01T07:49:40.932Z,974.20
2018-10-01T07:50:40.761Z,974.18
2018-10-01T07:51:40.739Z,974.20
2018-10-01T07:52:40.583Z,974.21
2018-10-01T07:53:40.549Z,974.24
2018-10-01T07:55:01.424Z,974.23
2018-10-01T07:55:40.463Z,974.26
2018-10-01T07:56:40.266Z,974.26
2018-10-01T07:57:40.276Z,974.23
2018-10-01T07:58:40.112Z,974.26
2018-10-01T07:59:40.180Z,974.25
2018-10-01T08:01:00.934Z,974.24
2018-10-01T08:01:39.988Z,974.27
2018-10-01T08:02:39.873Z,974.30
2018-10-01T08:03:39.798Z,974.28
2018-10-01T08:04:39.641Z,974.31
2018-10-01T08:05:39.615Z,974.31
2018-10-01T08:07:00.468Z,974.32
2018-10-01T08:07:39.546Z,974.35
2018-10-01T08:08:39.373Z,974.34
2018-10-01T08:09:39.330Z,974.32
2018-10-01T08:10:39.173Z,974.35
2018-10-01T08:11:39.141Z,974.37
2018-10-01T08:12:59.995Z,974.35
2018-10-01T08:13:39.053Z,974.38
2018-10-01T08:14:38.946Z,974.43
2018-10-01T08:15:38.909Z,974.45
2018-10-01T08:16:38.702Z,974.46
2018-10-01T08:17:38.671Z,974.45
2018-10-01T08:18:59.531Z,974.48
2018-10-01T08:19:38.466Z,974.44
2018-10-01T08:20:38.394Z,974.42
2018-10-01T08:21:38.385Z,974.43
2018-10-01T08:22:38.239Z,974.47
2018-10-01T08:23:38.265Z,974.50
2018-10-01T08:24:59.063Z,974.53
2018-10-01T08:25:38.003Z,974.52
2018-10-01T08:26:38.034Z,974.51
2018-10-01T08:27:37.844Z,974.54
2018-10-01T08:28:37.822Z,974.53
2018-10-01T08:29:37.760Z,974.55
2018-10-01T08:30:58.629Z,974.53
2018-10-01T08:31:37.537Z,974.53
2018-10-01T08:32:37.579Z,974.52
2018-10-01T08:33:37.376Z,974.54
2018-10-01T08:34:37.356Z,974.53
2018-10-01T08:35:37.273Z,974.58
2018-10-01T08:36:58.124Z,974.59
2018-10-01T08:37:37.061Z,974.55
2018-10-01T08:38:37.119Z,974.57
2018-10-01T08:39:36.907Z,974.56
2018-10-01T08:40:36.880Z,974.55
2018-10-01T08:41:36.857Z,974.60
2018-10-01T08:42:57.686Z,974.63
2018-10-01T08:43:36.596Z,974.60
2018-10-01T08:44:36.680Z,974.57
2018-10-01T08:45:36.437Z,974.56
2018-10-01T08:46:36.410Z,974.55
2018-10-01T08:47:36.340Z,974.58
2018-10-01T08:48:57.214Z,974.57
2018-10-01T08:49:36.126Z,974.57
2018-10-01T08:50:36.203Z,974.55
2018-10-01T08:51:36.016Z,974.56
2018-10-01T08:52:35.941Z,974.54
2018-10-01T08:53:35.847Z,974.56
2018-10-01T08:54:56.745Z,974.59
2018-10-01T08:55:35.662Z,974.58
2018-10-01T08:56:35.721Z,974.63
2018-10-01T08:57:35.505Z,974.62
2018-10-01T08:58:35.477Z,974.68
2018-10-01T08:59:35.419Z,974.66
2018-10-01T09:00:56.327Z,974.64
2018-10-01T09:01:35.192Z,974.66
2018-10-01T09:02:35.223Z,974.68
2018-10-01T09:03:35.038Z,974.66
2018-10-01T09:04:34.999Z,974.73
2018-10-01T09:05:34.962Z,974.70
2018-10-01T09:06:55.923Z,974.70
2018-10-01T09:07:34.729Z,974.78
2018-10-01T09:08:34.776Z,974.79
2018-10-01T09:09:34.568Z,974.78
2018-10-01T09:10:34.535Z,974.78
2018-10-01T09:11:34.456Z,974.81
2018-10-01T09:12:55.489Z,974.77
2018-10-01T09:13:34.259Z,974.77
2018-10-01T09:14:34.269Z,974.77
2018-10-01T09:15:34.155Z,974.80
2018-10-01T09:16:34.029Z,974.79
2018-10-01T09:17:34.147Z,974.82
2018-10-01T09:18:54.852Z,974.82
2018-10-01T09:19:33.870Z,974.84
2018-10-01T09:20:33.736Z,974.83
2018-10-01T09:21:33.705Z,974.78
2018-10-01T09:22:33.561Z,974.80
2018-10-01T09:23:33.633Z,974.81
2018-10-01T09:24:54.388Z,974.81
2018-10-01T09:25:33.333Z,974.79
2018-10-01T09:26:33.356Z,974.83
2018-10-01T09:27:33.175Z,974.82
2018-10-01T09:28:33.225Z,974.83
2018-10-01T09:29:33.118Z,974.80
2018-10-01T09:30:54.077Z,974.86
2018-10-01T09:31:32.876Z,974.81
2018-10-01T09:32:32.822Z,974.84
2018-10-01T09:33:32.744Z,974.94
2018-10-01T09:34:32.638Z,974.97
2018-10-01T09:35:32.729Z,974.89
2018-10-01T09:36:53.468Z,974.95
2018-10-01T09:37:32.413Z,974.89
2018-10-01T09:38:32.481Z,974.92
2018-10-01T09:39:32.254Z,974.96
2018-10-01T09:40:32.331Z,974.92
2018-10-01T09:41:32.103Z,974.95
2018-10-01T09:42:53.078Z,974.96
2018-10-01T09:43:31.945Z,974.94
2018-10-01T09:44:31.956Z,974.94
2018-10-01T09:45:31.794Z,975.00
2018-10-01T09:46:31.727Z,974.99
2018-10-01T09:47:31.712Z,974.96
2018-10-01T09:48:52.543Z,975.01
2018-10-01T09:49:31.525Z,974.99
2018-10-01T09:50:31.465Z,974.96
2018-10-01T09:51:31.432Z,974.98
2018-10-01T09:52:31.339Z,974.97
2018-10-01T09:53:31.280Z,974.94
2018-10-01T09:54:52.084Z,975.02
2018-10-01T09:55:31.053Z,975.02
2018-10-01T09:56:31.004Z,975.06
2018-10-01T09:57:30.967Z,975.08
2018-10-01T09:58:30.834Z,975.06
2018-10-01T09:59:30.769Z,975.10
2018-10-01T10:00:51.625Z,975.10
2018-10-01T10:01:30.563Z,975.08
2018-10-01T10:02:30.629Z,975.12
2018-10-01T10:03:30.411Z,975.11
2018-10-01T10:04:30.412Z,975.13
2018-10-01T10:05:30.256Z,975.16
2018-10-01T10:06:51.199Z,975.13
2018-10-01T10:07:30.106Z,975.16
2018-10-01T10:08:30.172Z,975.15
2018-10-01T10:09:29.949Z,975.14
2018-10-01T10:10:29.991Z,975.16
2018-10-01T10:11:29.816Z,975.16
2018-10-01T10:12:50.729Z,975.14
2018-10-01T10:13:29.638Z,975.11
2018-10-01T10:14:29.698Z,975.13
2018-10-01T10:15:29.494Z,975.12
2018-10-01T10:16:29.524Z,975.13
2018-10-01T10:17:29.361Z,975.13
2018-10-01T10:18:50.361Z,975.09
2018-10-01T10:19:29.185Z,975.10
2018-10-01T10:20:29.219Z,975.09
2018-10-01T10:21:29.029Z,975.07
2018-10-01T10:22:29.051Z,975.13
2018-10-01T10:23:28.878Z,975.08
2018-10-01T10:24:49.788Z,975.11
2018-10-01T10:25:28.723Z,975.13
2018-10-01T10:26:28.701Z,975.13
2018-10-01T10:27:28.575Z,975.10
2018-10-01T10:28:28.557Z,975.16
2018-10-01T10:29:28.425Z,975.15
2018-10-01T10:30:49.422Z,975.16
2018-10-01T10:31:28.271Z,975.18
2018-10-01T10:32:28.278Z,975.19
2018-10-01T10:33:28.110Z,975.19
2018-10-01T10:34:28.176Z,975.22
2018-10-01T10:35:27.975Z,975.18
2018-10-01T10:36:48.947Z,975.15
2018-10-01T10:37:27.803Z,975.20
2018-10-01T10:38:27.775Z,975.21
2018-10-01T10:39:27.689Z,975.25
2018-10-01T10:40:27.675Z,975.29
2018-10-01T10:41:27.500Z,975.26
2018-10-01T10:42:48.480Z,975.31
2018-10-01T10:43:27.344Z,975.35
2018-10-01T10:44:27.291Z,975.28
2018-10-01T10:45:27.197Z,975.32
2018-10-01T10:46:27.209Z,975.35
2018-10-01T10:47:27.040Z,975.35
2018-10-01T10:48:47.950Z,975.30
2018-10-01T10:49:26.922Z,975.38
2018-10-01T10:50:26.817Z,975.37
2018-10-01T10:51:26.836Z,975.41
2018-10-01T10:52:26.656Z,975.42
2018-10-01T10:53:26.639Z,975.37
2018-10-01T10:54:47.491Z,975.48
2018-10-01T10:55:26.452Z,975.46
2018-10-01T10:56:26.412Z,975.45
2018-10-01T10:57:26.274Z,975.49
2018-10-01T10:58:26.275Z,975.45
2018-10-01T10:59:26.125Z,975.43
2018-10-01T11:00:47.066Z,975.47
2018-10-01T11:01:25.969Z,975.47
2018-10-01T11:02:25.943Z,975.47
2018-10-01T11:03:25.898Z,975.43
2018-10-01T11:04:25.743Z,975.45
2018-10-01T11:05:25.701Z,975.47
2018-10-01T11:06:46.580Z,975.50
2018-10-01T11:07:25.618Z,975.43
2018-10-01T11:08:25.445Z,975.45
2018-10-01T11:09:25.519Z,975.49
2018-10-01T11:10:25.294Z,975.50
2018-10-01T11:11:25.208Z,975.51
2018-10-01T11:12:46.229Z,975.51
2018-10-01T11:13:25.048Z,975.53
2018-10-01T11:14:25.214Z,975.53
2018-10-01T11:15:24.961Z,975.53
2018-10-01T11:16:24.957Z,975.54
2018-10-01T11:17:24.748Z,975.50
2018-10-01T11:18:45.924Z,975.56
2018-10-01T11:19:24.625Z,975.49
2018-10-01T11:20:24.925Z,975.54
2018-10-01T11:21:24.550Z,975.58
2018-10-01T11:22:24.487Z,975.53
2018-10-01T11:23:24.287Z,975.53
2018-10-01T11:24:45.292Z,975.57
2018-10-01T11:25:24.194Z,975.53
2018-10-01T11:26:24.057Z,975.56
2018-10-01T11:27:24.099Z,975.57
2018-10-01T11:28:23.905Z,975.56
2018-10-01T11:29:23.918Z,975.57
2018-10-01T11:30:44.733Z,975.56
2018-10-01T11:31:23.874Z,975.62
2018-10-01T11:32:23.601Z,975.59
2018-10-01T11:33:23.703Z,975.59
2018-10-01T11:34:23.475Z,975.58
2018-10-01T11:35:23.637Z,975.61
2018-10-01T11:36:44.274Z,975.63
2018-10-01T11:37:23.365Z,975.64
2018-10-01T11:38:23.139Z,975.68
2018-10-01T11:39:23.076Z,975.63
2018-10-01T11:40:22.986Z,975.65
2018-10-01T11:41:22.984Z,975.65
2018-10-01T11:42:43.816Z,975.70
2018-10-01T11:43:22.891Z,975.66
2018-10-01T11:44:22.683Z,975.65
2018-10-01T11:45:22.785Z,975.65
2018-10-01T11:46:22.542Z,975.68
2018-10-01T11:47:22.461Z,975.67
2018-10-01T11:48:43.358Z,975.69
2018-10-01T11:49:22.421Z,975.64
2018-10-01T11:50:22.225Z,975.64
2018-10-01T11:51:22.239Z,975.64
2018-10-01T11:52:22.071Z,975.65
2018-10-01T11:53:22.040Z,975.66
2018-10-01T11:54:42.899Z,975.62
2018-10-01T11:55:21.959Z,975.68
2018-10-01T11:56:21.766Z,975.63
2018-10-01T11:57:21.791Z,975.66
2018-10-01T11:58:21.610Z,975.68
2018-10-01T11:59:21.568Z,975.69
2018-10-01T12:00:42.450Z,975.70
2018-10-01T12:01:21.479Z,975.71
2018-10-01T12:02:21.305Z,975.66
2018-10-01T12:03:21.306Z,975.73
2018-10-01T12:04:21.152Z,975.72
2018-10-01T12:05:21.102Z,975.74
2018-10-01T12:06:41.978Z,975.72
2018-10-01T12:07:21.007Z,975.70
2018-10-01T12:08:20.846Z,975.73
2018-10-01T12:09:20.871Z,975.72
2018-10-01T12:10:20.780Z,975.70
2018-10-01T12:11:20.727Z,975.74
2018-10-01T12:12:41.524Z,975.72
2018-10-01T12:13:20.638Z,975.73
2018-10-01T12:14:20.388Z,975.74
2018-10-01T12:15:20.549Z,975.78
2018-10-01T12:16:20.285Z,975.76
2018-10-01T12:17:20.257Z,975.76
2018-10-01T12:18:41.065Z,975.74
2018-10-01T12:19:20.387Z,975.71
2018-10-01T12:20:19.931Z,975.72
2018-10-01T12:21:20.143Z,975.78
2018-10-01T12:22:19.775Z,975.77
2018-10-01T12:23:20.079Z,975.82
2018-10-01T12:24:40.606Z,975.79
2018-10-01T12:25:19.596Z,975.75
2018-10-01T12:26:19.470Z,975.82
2018-10-01T12:27:19.555Z,975.84